Time;durP1;ratioP1;P1;durP2;ratioP2;P2;SDS_P1;SDS_P2;PMS_P1;PMS_P2;Temp;Humidity;BMP_temperature;BMP_pressure;BME280_temperature;BME280_humidity;BME280_pressure;Samples;Min_cycle;Max_cycle;Signal;HPM_P1;HPM_P2
2022/01/29 00:00:23;;;;;;;;;;;23.00;46.00;;;;;;1594004;73;787;-71
2022/01/29 00:02:25;;;;;;;;;;;23.10;46.20;;;;;;1606217;73;715;-69
2022/01/29 00:04:27;;;;;;;;;;;23.10;46.20;;;;;;1605879;73;776;-71
2022/01/29 00:06:28;;;;;;;;;;;23.10;46.20;;;;;;1603131;73;1933;-69
2022/01/29 00:08:31;;;;;;;;;;;23.00;46.00;;;;;;1602099;73;1160;-73
2022/01/29 00:10:33;;;;;;;;;;;23.00;46.00;;;;;;1580835;73;748;-71
2022/01/29 00:12:35;;;;;;;;;;;23.10;46.10;;;;;;1598068;73;739;-73
2022/01/29 00:14:37;;;;;;;;;;;23.10;46.10;;;;;;1568082;73;756;-74
2022/01/29 00:16:40;;;;;;;;;;;23.00;46.00;;;;;;1567182;73;833;-69
2022/01/29 00:18:42;;;;;;;;;;;23.10;46.10;;;;;;1592117;73;1141;-71
2022/01/29 00:20:44;;;;;;;;;;;23.10;46.20;;;;;;1589200;73;770;-71
2022/01/29 00:22:46;;;;;;;;;;;23.10;46.20;;;;;;1600452;73;802;-70
2022/01/29 00:24:48;;;;;;;;;;;23.10;46.20;;;;;;1613316;73;803;-70
2022/01/29 00:26:50;;;;;;;;;;;23.10;46.10;;;;;;1602349;73;1933;-70
2022/01/29 00:28:52;;;;;;;;;;;23.10;46.10;;;;;;1608633;72;1152;-72
2022/01/29 00:30:54;;;;;;;;;;;23.10;46.20;;;;;;1602960;73;727;-72
2022/01/29 00:32:56;;;;;;;;;;;23.00;46.00;;;;;;1592153;73;734;-73
2022/01/29 00:34:57;;;;;;;;;;;23.10;46.10;;;;;;1579208;73;802;-72
2022/01/29 00:36:59;;;;;;;;;;;23.10;46.20;;;;;;1590822;73;788;-73
2022/01/29 00:39:01;;;;;;;;;;;23.10;46.20;;;;;;1603455;73;1080;-69
2022/01/29 00:41:03;;;;;;;;;;;23.10;46.20;;;;;;1604168;73;759;-69
2022/01/29 00:43:05;;;;;;;;;;;23.10;46.20;;;;;;1604175;73;752;-70
2022/01/29 00:45:07;;;;;;;;;;;23.00;46.10;;;;;;1598903;73;2100;-70
2022/01/29 00:47:09;;;;;;;;;;;23.20;46.30;;;;;;1604532;73;739;-69
2022/01/29 00:49:12;;;;;;;;;;;23.10;46.30;;;;;;1593374;73;1118;-71
2022/01/29 00:51:13;;;;;;;;;;;23.10;46.30;;;;;;1578654;73;733;-70
2022/01/29 00:53:15;;;;;;;;;;;23.10;46.30;;;;;;1603895;73;698;-71
2022/01/29 00:55:17;;;;;;;;;;;23.10;46.30;;;;;;1602859;73;770;-72
2022/01/29 00:57:19;;;;;;;;;;;23.10;46.30;;;;;;1601485;73;755;-70
2022/01/29 00:59:21;;;;;;;;;;;23.10;46.40;;;;;;1611910;73;1115;-70
2022/01/29 01:01:23;;;;;;;;;;;23.00;46.30;;;;;;1590885;73;863;-70
2022/01/29 01:03:25;;;;;;;;;;;23.00;46.30;;;;;;1594889;73;790;-70
2022/01/29 01:05:26;;;;;;;;;;;23.00;46.30;;;;;;1591720;73;1953;-72
2022/01/29 01:07:28;;;;;;;;;;;23.10;46.50;;;;;;1603760;73;1263;-70
2022/01/29 01:09:30;;;;;;;;;;;23.00;46.40;;;;;;1569335;73;668;-71
2022/01/29 01:11:32;;;;;;;;;;;23.00;46.40;;;;;;1591211;73;770;-73
2022/01/29 01:13:34;;;;;;;;;;;23.00;46.40;;;;;;1601401;73;771;-70
2022/01/29 01:15:36;;;;;;;;;;;23.00;46.40;;;;;;1598568;73;725;-70
2022/01/29 01:17:38;;;;;;;;;;;23.10;46.60;;;;;;1603677;73;1171;-69
2022/01/29 01:19:40;;;;;;;;;;;23.00;46.50;;;;;;1617064;73;731;-71
2022/01/29 01:21:41;;;;;;;;;;;23.10;46.60;;;;;;1589749;73;760;-69
2022/01/29 01:23:43;;;;;;;;;;;23.10;46.60;;;;;;1603285;73;796;-69
2022/01/29 01:25:45;;;;;;;;;;;23.00;46.50;;;;;;1594938;73;1931;-71
2022/01/29 01:27:47;;;;;;;;;;;23.10;46.70;;;;;;1571975;73;1126;-73
2022/01/29 01:29:49;;;;;;;;;;;23.00;46.50;;;;;;1605207;73;762;-70
2022/01/29 01:31:51;;;;;;;;;;;23.00;46.60;;;;;;1604165;73;783;-70
2022/01/29 01:33:53;;;;;;;;;;;23.00;46.60;;;;;;1594138;73;828;-69
2022/01/29 01:35:59;;;;;;;;;;;23.00;46.60;;;;;;1601655;73;745;-69
2022/01/29 01:38:13;;;;;;;;;;;23.10;46.70;;;;;;1586412;73;2070;-72
2022/01/29 01:40:11;;;;;;;;;;;23.00;46.60;;;;;;1564276;74;1578;-71
2022/01/29 01:42:13;;;;;;;;;;;23.20;46.70;;;;;;1571636;74;670;-73
2022/01/29 01:44:14;;;;;;;;;;;23.00;46.60;;;;;;1571450;74;676;-71
2022/01/29 01:46:16;;;;;;;;;;;23.10;46.80;;;;;;1562864;74;1948;-73
2022/01/29 01:48:18;;;;;;;;;;;23.00;46.70;;;;;;1563184;74;1204;-73
2022/01/29 01:50:21;;;;;;;;;;;23.10;46.80;;;;;;1564679;74;742;-72
2022/01/29 01:52:23;;;;;;;;;;;23.10;46.80;;;;;;1564988;74;701;-72
2022/01/29 01:54:25;;;;;;;;;;;23.10;46.90;;;;;;1565557;76;769;-72
2022/01/29 01:56:27;;;;;;;;;;;23.10;46.90;;;;;;1564546;74;678;-72
2022/01/29 01:58:29;;;;;;;;;;;23.10;46.90;;;;;;1577840;74;1142;-72
2022/01/29 02:00:30;;;;;;;;;;;23.00;46.80;;;;;;1566081;74;783;-72
2022/01/29 02:02:32;;;;;;;;;;;23.00;46.70;;;;;;1565978;74;725;-73
2022/01/29 02:04:34;;;;;;;;;;;23.00;46.70;;;;;;1563140;74;703;-72
2022/01/29 02:06:36;;;;;;;;;;;23.10;46.80;;;;;;1577044;74;1934;-72
2022/01/29 02:08:38;;;;;;;;;;;23.10;46.90;;;;;;1565728;74;1189;-72
2022/01/29 02:10:40;;;;;;;;;;;23.10;46.80;;;;;;1562304;74;718;-72
2022/01/29 02:12:46;;;;;;;;;;;23.00;46.70;;;;;;1565499;74;734;-72
2022/01/29 02:14:48;;;;;;;;;;;23.00;46.80;;;;;;1562511;76;737;-72
2022/01/29 02:16:50;;;;;;;;;;;23.00;46.80;;;;;;1563825;74;772;-73
2022/01/29 02:18:52;;;;;;;;;;;23.10;46.90;;;;;;1565089;74;1118;-73
2022/01/29 02:20:53;;;;;;;;;;;23.00;46.80;;;;;;1565516;74;731;-72
2022/01/29 02:22:55;;;;;;;;;;;23.00;46.80;;;;;;1563572;74;800;-72
2022/01/29 02:24:57;;;;;;;;;;;23.00;46.80;;;;;;1565337;76;727;-74
2022/01/29 02:26:59;;;;;;;;;;;23.10;46.90;;;;;;1563674;74;1942;-72
2022/01/29 02:29:01;;;;;;;;;;;23.00;46.80;;;;;;1565364;76;1124;-73
2022/01/29 02:31:04;;;;;;;;;;;23.10;46.90;;;;;;1570023;74;735;-72
2022/01/29 02:33:08;;;;;;;;;;;23.00;46.80;;;;;;1563938;75;711;-72
2022/01/29 02:35:10;;;;;;;;;;;23.10;47.00;;;;;;1564276;74;603;-72
2022/01/29 02:37:11;;;;;;;;;;;23.10;47.00;;;;;;1560037;74;686;-72
2022/01/29 02:39:14;;;;;;;;;;;23.10;47.00;;;;;;1565390;76;1138;-72
2022/01/29 02:41:16;;;;;;;;;;;23.00;46.90;;;;;;1565744;76;710;-73
2022/01/29 02:43:19;;;;;;;;;;;23.00;47.00;;;;;;1566600;74;729;-72
2022/01/29 02:45:21;;;;;;;;;;;23.00;47.00;;;;;;1564184;74;695;-72
2022/01/29 02:47:33;;;;;;;;;;;23.00;47.00;;;;;;1565893;76;1928;-72
2022/01/29 02:49:32;;;;;;;;;;;23.00;47.00;;;;;;1563064;74;1095;-72
2022/01/29 02:51:34;;;;;;;;;;;23.10;47.10;;;;;;1563347;74;742;-73
2022/01/29 02:53:36;;;;;;;;;;;23.10;47.10;;;;;;1565170;76;691;-73
2022/01/29 02:55:38;;;;;;;;;;;23.00;47.00;;;;;;1565355;74;743;-73
2022/01/29 02:57:40;;;;;;;;;;;23.00;47.00;;;;;;1564657;74;842;-72
2022/01/29 02:59:42;;;;;;;;;;;23.00;47.00;;;;;;1564874;74;1157;-72
2022/01/29 03:01:43;;;;;;;;;;;23.00;47.10;;;;;;1553031;76;715;-72
2022/01/29 03:03:45;;;;;;;;;;;23.00;47.00;;;;;;1565379;74;657;-73
2022/01/29 03:05:47;;;;;;;;;;;23.00;47.00;;;;;;1566697;74;714;-73
2022/01/29 03:07:49;;;;;;;;;;;23.00;47.10;;;;;;1562952;76;1956;-73
2022/01/29 03:09:51;;;;;;;;;;;23.00;47.00;;;;;;1564863;76;735;-73
2022/01/29 03:11:56;;;;;;;;;;;23.00;47.00;;;;;;1563883;76;749;-74
2022/01/29 03:13:56;;;;;;;;;;;23.00;47.00;;;;;;1561946;74;1176;-73
2022/01/29 03:15:58;;;;;;;;;;;23.00;47.00;;;;;;1564046;76;699;-73
2022/01/29 03:18:00;;;;;;;;;;;23.00;47.10;;;;;;1567217;74;1114;-73
2022/01/29 03:20:02;;;;;;;;;;;23.00;47.10;;;;;;1564666;76;720;-72
2022/01/29 03:22:04;;;;;;;;;;;23.00;47.10;;;;;;1565331;74;754;-74
2022/01/29 03:24:06;;;;;;;;;;;23.00;47.10;;;;;;1569594;74;692;-72
2022/01/29 03:26:08;;;;;;;;;;;23.00;47.10;;;;;;1563968;76;1942;-72
2022/01/29 03:28:10;;;;;;;;;;;23.10;47.20;;;;;;1565488;76;1136;-72
2022/01/29 03:30:12;;;;;;;;;;;23.00;47.10;;;;;;1560623;76;733;-72
2022/01/29 03:32:14;;;;;;;;;;;23.10;47.20;;;;;;1564536;76;696;-72
2022/01/29 03:34:16;;;;;;;;;;;23.00;47.10;;;;;;1564524;76;707;-72
2022/01/29 03:36:18;;;;;;;;;;;23.00;47.10;;;;;;1563751;75;714;-72
2022/01/29 03:38:19;;;;;;;;;;;23.10;47.20;;;;;;1564607;76;1142;-73
2022/01/29 03:40:21;;;;;;;;;;;23.10;47.20;;;;;;1575781;74;707;-73
2022/01/29 03:42:23;;;;;;;;;;;23.10;47.20;;;;;;1559580;75;761;-74
2022/01/29 03:44:25;;;;;;;;;;;23.10;47.20;;;;;;1571252;75;787;-73
2022/01/29 03:46:27;;;;;;;;;;;23.20;47.20;;;;;;1566582;75;1949;-72
2022/01/29 03:48:29;;;;;;;;;;;23.10;47.20;;;;;;1570297;74;1142;-72
2022/01/29 03:50:31;;;;;;;;;;;23.20;47.20;;;;;;1571374;75;672;-72
2022/01/29 03:52:33;;;;;;;;;;;23.10;47.30;;;;;;1571446;75;709;-71
2022/01/29 03:54:35;;;;;;;;;;;23.10;47.30;;;;;;1570981;75;697;-71
2022/01/29 03:56:37;;;;;;;;;;;23.20;47.20;;;;;;1570564;74;650;-71
2022/01/29 03:58:38;;;;;;;;;;;23.10;47.30;;;;;;1570918;75;1092;-72
2022/01/29 04:00:40;;;;;;;;;;;23.20;47.30;;;;;;1571858;74;780;-72
2022/01/29 04:02:42;;;;;;;;;;;23.20;47.20;;;;;;1570530;75;791;-72
2022/01/29 04:04:44;;;;;;;;;;;23.10;47.20;;;;;;1574963;74;758;-73
2022/01/29 04:06:46;;;;;;;;;;;23.20;47.20;;;;;;1571539;75;1941;-73
2022/01/29 04:08:48;;;;;;;;;;;23.20;47.20;;;;;;1571019;75;1197;-73
2022/01/29 04:10:51;;;;;;;;;;;23.20;47.20;;;;;;1572124;74;729;-72
2022/01/29 04:12:53;;;;;;;;;;;23.20;47.20;;;;;;1571924;75;733;-71
2022/01/29 04:14:57;;;;;;;;;;;23.10;47.30;;;;;;1580345;74;722;-72
2022/01/29 04:16:59;;;;;;;;;;;23.20;47.30;;;;;;1572702;74;1162;-72
2022/01/29 04:19:00;;;;;;;;;;;23.20;47.30;;;;;;1570457;75;1145;-72
2022/01/29 04:21:03;;;;;;;;;;;23.20;47.20;;;;;;1573492;74;713;-74
2022/01/29 04:23:07;;;;;;;;;;;23.20;47.30;;;;;;1571347;75;629;-72
2022/01/29 04:25:09;;;;;;;;;;;23.20;47.30;;;;;;1571311;75;737;-74
2022/01/29 04:27:18;;;;;;;;;;;23.20;47.20;;;;;;1574364;74;1942;-73
2022/01/29 04:29:15;;;;;;;;;;;23.20;47.30;;;;;;1569953;75;1149;-73
2022/01/29 04:31:20;;;;;;;;;;;23.20;47.20;;;;;;1568428;74;665;-73
2022/01/29 04:33:28;;;;;;;;;;;23.10;47.20;;;;;;1582063;74;1016;-73
2022/01/29 04:35:27;;;;;;;;;;;23.20;47.30;;;;;;1585554;74;1153;-72
2022/01/29 04:37:29;;;;;;;;;;;23.20;47.30;;;;;;1587128;74;729;-72
2022/01/29 04:39:31;;;;;;;;;;;23.10;47.30;;;;;;1585857;74;1120;-72
2022/01/29 04:41:33;;;;;;;;;;;23.20;47.30;;;;;;1584363;74;772;-71
2022/01/29 04:43:36;;;;;;;;;;;23.10;47.30;;;;;;1588911;74;714;-72
2022/01/29 04:45:38;;;;;;;;;;;23.30;47.40;;;;;;1593020;74;1241;-72
2022/01/29 04:47:40;;;;;;;;;;;23.20;47.30;;;;;;1593224;74;1934;-70
2022/01/29 04:49:42;;;;;;;;;;;23.20;47.30;;;;;;1581697;74;1174;-72
2022/01/29 04:51:44;;;;;;;;;;;23.20;47.20;;;;;;1597716;74;817;-71
2022/01/29 04:53:45;;;;;;;;;;;23.20;47.20;;;;;;1578641;74;729;-72
2022/01/29 04:55:47;;;;;;;;;;;23.10;47.20;;;;;;1585683;74;738;-72
2022/01/29 04:57:49;;;;;;;;;;;23.20;47.30;;;;;;1585998;74;1145;-72
2022/01/29 04:59:51;;;;;;;;;;;23.10;47.20;;;;;;1575184;74;745;-72
2022/01/29 05:01:53;;;;;;;;;;;23.20;47.20;;;;;;1586415;74;734;-72
2022/01/29 05:03:55;;;;;;;;;;;23.10;47.30;;;;;;1586318;73;867;-72
2022/01/29 05:05:57;;;;;;;;;;;23.10;47.30;;;;;;1583961;74;724;-74
2022/01/29 05:07:59;;;;;;;;;;;23.20;47.30;;;;;;1582230;74;1926;-73
2022/01/29 05:10:00;;;;;;;;;;;23.20;47.30;;;;;;1578775;74;795;-71
2022/01/29 05:12:03;;;;;;;;;;;23.20;47.30;;;;;;1570842;74;705;-72
2022/01/29 05:14:08;;;;;;;;;;;23.20;47.30;;;;;;1575695;74;765;-72
2022/01/29 05:27:45;;;;;;;;;;;23.20;47.30;;;;;;1589212;74;1906;-73
2022/01/29 05:29:47;;;;;;;;;;;23.10;47.30;;;;;;1581739;74;742;-73
2022/01/29 05:31:51;;;;;;;;;;;23.10;47.40;;;;;;1570687;74;734;-73
2022/01/29 05:33:53;;;;;;;;;;;23.20;47.50;;;;;;1569878;74;1083;-74
2022/01/29 05:35:54;;;;;;;;;;;23.10;47.50;;;;;;1570895;74;717;-73
2022/01/29 05:37:56;;;;;;;;;;;23.20;47.50;;;;;;1562609;74;1125;-73
2022/01/29 05:39:58;;;;;;;;;;;23.20;47.50;;;;;;1569674;74;680;-72
2022/01/29 05:42:00;;;;;;;;;;;23.20;47.50;;;;;;1572359;74;823;-73
2022/01/29 05:44:02;;;;;;;;;;;23.20;47.50;;;;;;1576922;74;768;-75
2022/01/29 05:46:04;;;;;;;;;;;23.10;47.60;;;;;;1568245;74;739;-75
2022/01/29 05:48:06;;;;;;;;;;;23.20;47.50;;;;;;1578090;74;1936;-74
2022/01/29 05:50:08;;;;;;;;;;;23.20;47.40;;;;;;1583480;74;841;-75
2022/01/29 05:52:10;;;;;;;;;;;23.10;47.40;;;;;;1570253;74;687;-74
2022/01/29 05:54:12;;;;;;;;;;;23.10;47.40;;;;;;1584912;74;787;-73
2022/01/29 05:56:14;;;;;;;;;;;23.20;47.50;;;;;;1581147;74;770;-75
2022/01/29 05:58:15;;;;;;;;;;;23.20;47.50;;;;;;1571428;74;1130;-73
2022/01/29 06:00:17;;;;;;;;;;;23.10;47.50;;;;;;1585986;74;678;-72
2022/01/29 06:02:19;;;;;;;;;;;23.10;47.50;;;;;;1571482;74;727;-74
2022/01/29 06:04:21;;;;;;;;;;;23.20;47.50;;;;;;1571024;74;600;-72
2022/01/29 06:06:23;;;;;;;;;;;23.20;47.60;;;;;;1573592;74;660;-72
2022/01/29 06:08:25;;;;;;;;;;;23.10;47.50;;;;;;1572187;74;1940;-70
2022/01/29 06:10:27;;;;;;;;;;;23.20;47.50;;;;;;1586307;74;662;-71
2022/01/29 06:12:29;;;;;;;;;;;23.10;47.50;;;;;;1572268;74;713;-72
2022/01/29 06:14:30;;;;;;;;;;;23.20;47.50;;;;;;1578903;74;792;-72
2022/01/29 06:16:32;;;;;;;;;;;23.10;47.60;;;;;;1569646;74;723;-72
2022/01/29 06:18:34;;;;;;;;;;;23.10;47.60;;;;;;1578663;74;1130;-72
2022/01/29 06:20:36;;;;;;;;;;;23.20;47.60;;;;;;1570801;74;736;-72
2022/01/29 06:22:38;;;;;;;;;;;23.20;47.60;;;;;;1571899;74;724;-71
2022/01/29 06:24:41;;;;;;;;;;;23.10;47.60;;;;;;1553749;75;705;-70
2022/01/29 06:26:43;;;;;;;;;;;23.10;47.60;;;;;;1572382;74;643;-71
2022/01/29 06:28:45;;;;;;;;;;;23.20;47.60;;;;;;1566038;74;1952;-71
2022/01/29 06:30:47;;;;;;;;;;;23.10;47.70;;;;;;1572408;74;932;-72
2022/01/29 06:32:49;;;;;;;;;;;23.20;47.70;;;;;;1570539;74;716;-72
2022/01/29 06:34:51;;;;;;;;;;;23.10;47.60;;;;;;1570095;74;767;-72
2022/01/29 06:36:52;;;;;;;;;;;23.20;47.70;;;;;;1565435;75;714;-71
2022/01/29 06:38:54;;;;;;;;;;;23.20;47.70;;;;;;1562180;74;1118;-72
2022/01/29 06:40:56;;;;;;;;;;;23.00;47.60;;;;;;1572120;74;805;-73
2022/01/29 06:42:58;;;;;;;;;;;23.20;47.70;;;;;;1570640;74;708;-67
2022/01/29 06:45:00;;;;;;;;;;;23.10;47.80;;;;;;1570612;74;722;-71
2022/01/29 06:47:02;;;;;;;;;;;23.00;47.60;;;;;;1570102;74;760;-71
2022/01/29 06:49:04;;;;;;;;;;;23.10;47.70;;;;;;1570021;74;1942;-71
2022/01/29 06:51:06;;;;;;;;;;;23.20;47.70;;;;;;1571469;74;712;-73
2022/01/29 06:53:08;;;;;;;;;;;23.20;47.80;;;;;;1571032;74;598;-72
2022/01/29 06:55:09;;;;;;;;;;;23.20;47.80;;;;;;1572016;74;677;-73
2022/01/29 06:57:11;;;;;;;;;;;23.20;47.80;;;;;;1571438;74;794;-73
2022/01/29 06:59:13;;;;;;;;;;;23.10;47.70;;;;;;1570815;74;1066;-72
2022/01/29 07:01:15;;;;;;;;;;;23.00;47.60;;;;;;1571831;74;723;-72
2022/01/29 07:03:17;;;;;;;;;;;23.10;47.80;;;;;;1570340;74;694;-71
2022/01/29 07:05:19;;;;;;;;;;;23.10;47.80;;;;;;1574508;74;724;-72
2022/01/29 07:07:21;;;;;;;;;;;23.00;47.70;;;;;;1564843;74;738;-73
2022/01/29 07:09:22;;;;;;;;;;;23.00;47.70;;;;;;1571939;74;1937;-72
2022/01/29 07:11:25;;;;;;;;;;;23.20;47.80;;;;;;1570922;74;778;-73
2022/01/29 07:13:27;;;;;;;;;;;23.00;47.70;;;;;;1573684;74;757;-73
2022/01/29 07:15:28;;;;;;;;;;;23.00;47.70;;;;;;1570914;74;778;-73
2022/01/29 07:17:30;;;;;;;;;;;23.00;47.70;;;;;;1570600;74;711;-72
2022/01/29 07:19:32;;;;;;;;;;;23.10;47.80;;;;;;1569593;74;1161;-71
2022/01/29 07:21:34;;;;;;;;;;;23.00;47.70;;;;;;1569997;74;714;-72
2022/01/29 07:23:36;;;;;;;;;;;23.00;47.70;;;;;;1570836;74;635;-71
2022/01/29 07:25:38;;;;;;;;;;;23.00;47.60;;;;;;1569709;74;788;-72
2022/01/29 07:27:40;;;;;;;;;;;23.10;47.90;;;;;;1571409;74;1933;-72
2022/01/29 07:29:41;;;;;;;;;;;23.10;47.90;;;;;;1571338;74;1128;-72
2022/01/29 07:31:43;;;;;;;;;;;23.20;48.00;;;;;;1571390;74;775;-73
2022/01/29 07:33:45;;;;;;;;;;;23.10;47.90;;;;;;1570371;75;701;-71
2022/01/29 07:35:47;;;;;;;;;;;23.10;47.90;;;;;;1566121;75;742;-71
2022/01/29 07:37:49;;;;;;;;;;;23.10;47.90;;;;;;1570386;74;1137;-71
2022/01/29 07:39:51;;;;;;;;;;;23.10;47.90;;;;;;1571742;74;746;-71
2022/01/29 07:41:53;;;;;;;;;;;23.10;47.80;;;;;;1569815;74;783;-71
2022/01/29 07:43:55;;;;;;;;;;;23.10;47.90;;;;;;1570792;74;652;-72
2022/01/29 07:45:56;;;;;;;;;;;23.10;48.00;;;;;;1566031;74;719;-72
2022/01/29 07:47:58;;;;;;;;;;;23.20;48.00;;;;;;1570244;74;1919;-73
2022/01/29 07:50:00;;;;;;;;;;;23.20;47.80;;;;;;1571225;74;719;-71
2022/01/29 07:52:02;;;;;;;;;;;23.10;47.90;;;;;;1569812;74;807;-71
2022/01/29 07:54:04;;;;;;;;;;;23.10;47.90;;;;;;1570661;74;739;-71
2022/01/29 07:56:06;;;;;;;;;;;23.20;47.90;;;;;;1570779;74;787;-71
2022/01/29 07:58:09;;;;;;;;;;;23.10;47.90;;;;;;1570376;74;1133;-74
2022/01/29 08:00:11;;;;;;;;;;;23.20;47.90;;;;;;1564530;74;739;-71
2022/01/29 08:02:13;;;;;;;;;;;23.20;47.90;;;;;;1579278;74;711;-72
2022/01/29 08:04:15;;;;;;;;;;;23.10;47.90;;;;;;1570955;74;733;-70
2022/01/29 08:06:17;;;;;;;;;;;23.20;48.10;;;;;;1572434;74;725;-66
2022/01/29 08:08:19;;;;;;;;;;;23.20;47.90;;;;;;1570223;74;1950;-69
2022/01/29 08:10:21;;;;;;;;;;;23.10;47.80;;;;;;1570431;74;780;-70
2022/01/29 08:12:23;;;;;;;;;;;23.10;47.80;;;;;;1569941;74;768;-70
2022/01/29 08:14:25;;;;;;;;;;;23.20;47.80;;;;;;1584408;74;736;-69
2022/01/29 08:16:27;;;;;;;;;;;23.10;47.90;;;;;;1571683;74;728;-70
2022/01/29 08:18:28;;;;;;;;;;;23.10;47.80;;;;;;1571167;74;1150;-70
2022/01/29 08:20:30;;;;;;;;;;;23.10;47.80;;;;;;1569569;74;803;-70
2022/01/29 08:22:32;;;;;;;;;;;23.10;47.90;;;;;;1570407;74;792;-69
2022/01/29 08:24:35;;;;;;;;;;;23.00;47.70;;;;;;1572936;74;706;-68
2022/01/29 08:26:37;;;;;;;;;;;23.00;47.80;;;;;;1572120;74;737;-70
2022/01/29 08:28:39;;;;;;;;;;;23.00;47.80;;;;;;1567206;74;1928;-70
2022/01/29 08:30:41;;;;;;;;;;;23.00;47.80;;;;;;1561463;74;781;-71
2022/01/29 08:32:43;;;;;;;;;;;23.00;47.80;;;;;;1571934;74;825;-69
2022/01/29 08:34:46;;;;;;;;;;;23.10;48.00;;;;;;1566342;74;730;-70
2022/01/29 08:36:49;;;;;;;;;;;23.00;47.90;;;;;;1571528;74;812;-70
2022/01/29 08:38:51;;;;;;;;;;;23.00;47.80;;;;;;1566329;74;1168;-69
2022/01/29 08:40:53;;;;;;;;;;;23.10;48.00;;;;;;1570137;74;694;-70
2022/01/29 08:42:55;;;;;;;;;;;23.00;47.90;;;;;;1571798;74;821;-69
2022/01/29 08:44:57;;;;;;;;;;;23.00;47.80;;;;;;1572185;74;709;-69
2022/01/29 08:46:59;;;;;;;;;;;23.00;47.80;;;;;;1562020;74;723;-70
2022/01/29 08:49:00;;;;;;;;;;;23.00;47.80;;;;;;1571235;74;1950;-70
2022/01/29 08:51:02;;;;;;;;;;;23.00;47.90;;;;;;1574251;74;664;-71
2022/01/29 08:53:04;;;;;;;;;;;23.00;47.90;;;;;;1580588;74;726;-70
2022/01/29 08:55:06;;;;;;;;;;;23.00;47.90;;;;;;1569688;74;730;-70
2022/01/29 08:57:08;;;;;;;;;;;23.00;47.90;;;;;;1566489;74;734;-70
2022/01/29 08:59:10;;;;;;;;;;;23.00;47.90;;;;;;1570544;74;1114;-71
2022/01/29 09:01:14;;;;;;;;;;;23.00;47.90;;;;;;1571462;74;706;-70
2022/01/29 09:03:16;;;;;;;;;;;23.00;47.90;;;;;;1570875;74;2095;-71
2022/01/29 09:05:18;;;;;;;;;;;23.00;47.90;;;;;;1572362;74;912;-71
2022/01/29 09:07:20;;;;;;;;;;;23.00;47.90;;;;;;1568346;74;648;-71
2022/01/29 09:09:26;;;;;;;;;;;23.00;48.10;;;;;;1569891;74;1941;-74
2022/01/29 09:11:26;;;;;;;;;;;23.00;48.20;;;;;;1569262;74;1107;-70
2022/01/29 09:13:28;;;;;;;;;;;23.20;48.30;;;;;;1581420;74;803;-73
2022/01/29 09:15:29;;;;;;;;;;;23.10;48.20;;;;;;1585224;74;733;-74
2022/01/29 09:17:31;;;;;;;;;;;23.20;48.10;;;;;;1573278;74;710;-74
2022/01/29 09:19:33;;;;;;;;;;;23.20;48.00;;;;;;1581189;74;1178;-72
2022/01/29 09:21:35;;;;;;;;;;;23.10;48.00;;;;;;1574266;74;737;-74
2022/01/29 09:23:37;;;;;;;;;;;23.20;47.90;;;;;;1579505;74;759;-74
2022/01/29 09:25:39;;;;;;;;;;;23.10;47.90;;;;;;1589527;74;651;-73
2022/01/29 09:27:41;;;;;;;;;;;23.10;47.90;;;;;;1568219;74;707;-74
2022/01/29 09:29:43;;;;;;;;;;;23.10;47.90;;;;;;1571623;74;1970;-74
2022/01/29 09:31:45;;;;;;;;;;;23.10;47.80;;;;;;1572439;74;700;-74
2022/01/29 09:33:47;;;;;;;;;;;23.10;47.90;;;;;;1578055;74;733;-73
2022/01/29 09:35:49;;;;;;;;;;;23.00;47.70;;;;;;1567438;74;781;-73
2022/01/29 09:37:50;;;;;;;;;;;23.00;47.70;;;;;;1570911;74;1149;-70
2022/01/29 09:39:53;;;;;;;;;;;23.10;47.80;;;;;;1571033;74;692;-73
2022/01/29 09:41:56;;;;;;;;;;;23.10;47.80;;;;;;1569682;74;714;-72
2022/01/29 09:43:57;;;;;;;;;;;23.00;47.60;;;;;;1570974;75;785;-73
2022/01/29 09:45:59;;;;;;;;;;;23.10;47.70;;;;;;1581104;74;728;-73
2022/01/29 09:48:02;;;;;;;;;;;23.10;47.60;;;;;;1566196;74;1149;-73
2022/01/29 09:50:04;;;;;;;;;;;23.10;47.60;;;;;;1576882;74;1915;-74
2022/01/29 09:52:06;;;;;;;;;;;23.00;47.50;;;;;;1572674;74;744;-74
2022/01/29 09:54:08;;;;;;;;;;;23.00;47.50;;;;;;1578232;74;717;-73
2022/01/29 09:56:10;;;;;;;;;;;23.00;47.40;;;;;;1587862;73;724;-74
2022/01/29 09:58:12;;;;;;;;;;;23.00;47.40;;;;;;1571366;74;1148;-74
2022/01/29 10:00:14;;;;;;;;;;;23.10;47.50;;;;;;1583712;74;718;-72
2022/01/29 10:02:17;;;;;;;;;;;23.00;47.40;;;;;;1572223;74;702;-73
2022/01/29 10:04:19;;;;;;;;;;;23.10;47.40;;;;;;1566265;74;727;-73
2022/01/29 10:06:21;;;;;;;;;;;23.10;47.50;;;;;;1575219;74;749;-73
2022/01/29 10:08:23;;;;;;;;;;;23.00;47.30;;;;;;1573061;74;1161;-73
2022/01/29 10:10:25;;;;;;;;;;;23.00;47.30;;;;;;1571342;74;1938;-73
2022/01/29 10:12:27;;;;;;;;;;;23.00;47.30;;;;;;1573454;74;728;-73
2022/01/29 10:14:29;;;;;;;;;;;23.00;47.30;;;;;;1582525;74;717;-73
2022/01/29 10:16:32;;;;;;;;;;;23.00;47.20;;;;;;1536714;75;1123;-73
2022/01/29 10:18:35;;;;;;;;;;;23.00;47.20;;;;;;1572175;74;1181;-73
2022/01/29 10:20:43;;;;;;;;;;;23.00;47.20;;;;;;1580473;74;730;-73
2022/01/29 10:22:41;;;;;;;;;;;23.00;47.10;;;;;;1573233;74;1052;-72
2022/01/29 10:24:51;;;;;;;;;;;23.00;47.20;;;;;;1572478;74;710;-74
2022/01/29 10:26:54;;;;;;;;;;;23.00;47.10;;;;;;1570231;74;696;-73
2022/01/29 10:28:57;;;;;;;;;;;23.00;47.10;;;;;;1571918;75;1935;-73
2022/01/29 10:31:00;;;;;;;;;;;23.00;47.10;;;;;;1581931;73;877;-73
2022/01/29 10:33:20;;;;;;;;;;;23.00;47.10;;;;;;1569799;74;700;-74
2022/01/29 10:35:22;;;;;;;;;;;23.00;47.10;;;;;;1572473;74;690;-73
2022/01/29 10:37:24;;;;;;;;;;;23.00;47.10;;;;;;1538460;75;817;-74
2022/01/29 10:39:29;;;;;;;;;;;23.00;47.00;;;;;;1572737;74;1154;-74
2022/01/29 10:41:31;;;;;;;;;;;23.10;47.10;;;;;;1572599;74;682;-74
2022/01/29 10:43:33;;;;;;;;;;;23.10;47.10;;;;;;1577605;74;722;-73
2022/01/29 10:45:36;;;;;;;;;;;23.10;47.10;;;;;;1572412;75;715;-73
2022/01/29 10:47:57;;;;;;;;;;;23.10;47.10;;;;;;1572544;75;687;-74
2022/01/29 10:50:02;;;;;;;;;;;23.10;46.90;;;;;;1575353;74;1924;-74
2022/01/29 10:52:04;;;;;;;;;;;23.10;47.00;;;;;;1576522;74;1114;-74
2022/01/29 10:54:16;;;;;;;;;;;23.10;46.90;;;;;;1572229;74;784;-73
2022/01/29 10:56:18;;;;;;;;;;;23.00;46.80;;;;;;1572372;75;756;-75
2022/01/29 10:58:20;;;;;;;;;;;23.10;46.90;;;;;;1572509;74;1133;-73
2022/01/29 11:00:26;;;;;;;;;;;23.00;46.80;;;;;;1571585;74;917;-74
2022/01/29 11:02:30;;;;;;;;;;;23.00;46.80;;;;;;1579824;74;761;-73
2022/01/29 11:04:32;;;;;;;;;;;23.20;46.90;;;;;;1575049;74;1695;-73
2022/01/29 11:06:38;;;;;;;;;;;23.10;46.90;;;;;;1573101;74;707;-72
2022/01/29 11:08:37;;;;;;;;;;;23.10;46.80;;;;;;1571473;74;1158;-72
2022/01/29 11:10:39;;;;;;;;;;;23.00;46.80;;;;;;1572621;75;1918;-71
2022/01/29 11:12:44;;;;;;;;;;;23.10;46.80;;;;;;1572611;75;737;-72
2022/01/29 11:14:46;;;;;;;;;;;23.00;46.70;;;;;;1570377;74;715;-73
2022/01/29 11:16:48;;;;;;;;;;;23.00;46.70;;;;;;1572771;75;680;-74
2022/01/29 11:18:50;;;;;;;;;;;23.00;46.70;;;;;;1570504;74;1165;-72
2022/01/29 11:20:51;;;;;;;;;;;23.00;46.70;;;;;;1570306;75;712;-72
2022/01/29 11:22:54;;;;;;;;;;;23.00;46.70;;;;;;1572394;75;746;-71
2022/01/29 11:24:58;;;;;;;;;;;23.00;46.70;;;;;;1572305;74;726;-71
2022/01/29 11:27:00;;;;;;;;;;;23.10;46.80;;;;;;1571947;75;1034;-73
2022/01/29 11:29:20;;;;;;;;;;;23.00;46.70;;;;;;1572156;74;1934;-73
2022/01/29 11:31:22;;;;;;;;;;;23.00;46.70;;;;;;1572310;75;713;-73
2022/01/29 11:33:24;;;;;;;;;;;23.00;46.70;;;;;;1571260;75;715;-73
2022/01/29 11:35:26;;;;;;;;;;;23.00;46.70;;;;;;1559627;74;712;-72
2022/01/29 11:37:38;;;;;;;;;;;23.00;46.70;;;;;;1571611;74;728;-72
2022/01/29 11:39:40;;;;;;;;;;;23.00;46.60;;;;;;1561654;74;1117;-70
2022/01/29 11:41:42;;;;;;;;;;;23.00;46.70;;;;;;1573036;74;746;-71
2022/01/29 11:43:43;;;;;;;;;;;23.00;46.60;;;;;;1570877;74;751;-71
2022/01/29 11:45:51;;;;;;;;;;;23.00;46.60;;;;;;1570045;74;686;-71
2022/01/29 11:47:53;;;;;;;;;;;23.10;46.70;;;;;;1571076;74;1165;-71
2022/01/29 11:49:56;;;;;;;;;;;23.20;46.70;;;;;;1570295;74;1922;-71
2022/01/29 11:51:59;;;;;;;;;;;23.20;46.60;;;;;;1544403;75;1069;-71
2022/01/29 11:54:01;;;;;;;;;;;23.10;46.50;;;;;;1579321;74;669;-72
2022/01/29 11:56:03;;;;;;;;;;;23.20;46.50;;;;;;1570910;74;701;-71
2022/01/29 11:58:15;;;;;;;;;;;23.10;46.50;;;;;;1570129;74;1152;-71
2022/01/29 12:00:36;;;;;;;;;;;23.20;46.50;;;;;;1570567;74;717;-71
2022/01/29 12:02:39;;;;;;;;;;;23.20;46.40;;;;;;1572820;74;682;-71
2022/01/29 12:04:53;;;;;;;;;;;23.20;46.40;;;;;;1584318;74;711;-71
2022/01/29 12:06:59;;;;;;;;;;;23.20;46.30;;;;;;1570598;74;659;-74
2022/01/29 12:09:05;;;;;;;;;;;23.20;46.30;;;;;;1582216;74;1132;-72
2022/01/29 12:11:10;;;;;;;;;;;23.20;46.30;;;;;;1567375;74;1919;-73
2022/01/29 12:13:13;;;;;;;;;;;23.20;46.00;;;;;;1566257;74;716;-74
2022/01/29 12:15:17;;;;;;;;;;;23.30;46.10;;;;;;1576329;74;660;-74
2022/01/29 12:17:34;;;;;;;;;;;23.30;46.00;;;;;;1572439;74;698;-74
2022/01/29 12:19:40;;;;;;;;;;;23.20;46.00;;;;;;1572306;74;1166;-74
2022/01/29 12:21:42;;;;;;;;;;;23.30;46.00;;;;;;1573066;74;687;-74